createdAt,value
2019-05-26T00:04:24.784Z,101103.83
2019-05-26T00:10:30.558Z,101108.70
2019-05-26T00:16:36.780Z,101103.00
2019-05-26T00:22:42.852Z,101099.97
2019-05-26T00:28:48.609Z,101097.39
2019-05-26T00:34:54.579Z,101094.77
2019-05-26T00:41:00.597Z,101090.39
2019-05-26T00:47:06.811Z,101086.01
2019-05-26T00:53:13.222Z,101082.94
2019-05-26T00:59:19.154Z,101069.79
2019-05-26T01:05:24.908Z,101065.01
2019-05-26T01:11:30.709Z,101060.67
2019-05-26T01:17:36.447Z,101065.08
2019-05-26T01:23:42.233Z,101058.90
2019-05-26T01:29:48.268Z,101057.20
2019-05-26T01:35:54.681Z,101059.86
2019-05-26T01:42:00.509Z,101069.53
2019-05-26T01:48:07.368Z,101067.78
2019-05-26T01:54:13.285Z,101061.61
2019-05-26T02:00:19.854Z,101058.50
2019-05-26T02:06:26.095Z,101056.35
2019-05-26T02:12:32.918Z,101060.27
2019-05-26T02:18:39.111Z,101055.44
2019-05-26T02:24:45.197Z,101052.77
2019-05-26T02:30:51.145Z,101053.22
2019-05-26T02:36:57.021Z,101058.05
2019-05-26T02:43:03.426Z,101052.77
2019-05-26T02:49:09.351Z,101037.75
2019-05-26T02:55:16.115Z,101038.56
2019-05-26T03:01:21.929Z,101039.83
2019-05-26T03:07:28.496Z,101037.54
2019-05-26T03:13:36.985Z,101033.50
2019-05-26T03:19:44.589Z,101030.41
2019-05-26T03:25:50.400Z,101029.54
2019-05-26T03:31:56.331Z,101027.35
2019-05-26T03:38:02.201Z,101036.63
2019-05-26T03:44:08.032Z,101037.54
2019-05-26T03:50:13.859Z,101037.54
2019-05-26T03:56:19.660Z,101044.56
2019-05-26T04:02:25.651Z,101040.98
2019-05-26T04:08:31.589Z,101031.34
2019-05-26T04:14:37.442Z,101027.28
2019-05-26T04:20:45.938Z,101025.91
2019-05-26T04:26:50.718Z,101023.23
2019-05-26T04:32:56.481Z,101013.53
2019-05-26T04:39:02.364Z,101015.21
2019-05-26T04:45:08.368Z,101012.39
2019-05-26T04:51:14.286Z,101010.41
2019-05-26T04:57:20.300Z,101010.73
2019-05-26T05:03:26.071Z,101007.94
2019-05-26T05:09:31.816Z,101011.72
2019-05-26T05:15:37.612Z,101007.10
2019-05-26T05:21:43.369Z,100997.09
2019-05-26T05:27:49.548Z,100997.25
2019-05-26T05:33:55.438Z,100991.88
2019-05-26T05:40:01.425Z,100985.98
2019-05-26T05:46:07.226Z,100987.61
2019-05-26T05:52:13.043Z,100987.11
2019-05-26T05:58:19.339Z,100989.49
2019-05-26T06:04:25.445Z,100989.63
2019-05-26T06:10:31.348Z,100985.83
2019-05-26T06:16:38.102Z,100982.36
2019-05-26T06:22:43.888Z,100971.83
2019-05-26T06:28:52.314Z,100958.12
2019-05-26T06:34:57.205Z,100964.85
2019-05-26T06:41:03.089Z,100976.74
2019-05-26T06:47:08.861Z,100967.01
2019-05-26T06:53:14.915Z,100964.19
2019-05-26T06:59:21.082Z,100964.59
2019-05-26T07:05:26.901Z,100962.09
2019-05-26T07:11:48.991Z,100967.91
2019-05-26T07:17:40.294Z,100967.66
2019-05-26T07:23:46.303Z,100965.24
2019-05-26T07:29:52.079Z,100966.05
2019-05-26T07:35:57.845Z,100968.45
2019-05-26T07:42:10.446Z,100959.06
2019-05-26T07:48:11.773Z,100952.26
2019-05-26T07:54:25.650Z,100962.39
2019-05-26T08:00:25.504Z,100960.64
2019-05-26T08:06:31.424Z,100960.05
2019-05-26T08:12:37.441Z,100954.30
2019-05-26T08:18:43.279Z,100943.53
2019-05-26T08:24:49.058Z,100942.31
2019-05-26T08:30:55.040Z,100937.11
2019-05-26T08:37:01.277Z,100932.11
2019-05-26T08:43:07.238Z,100927.29
2019-05-26T08:49:13.267Z,100924.62
2019-05-26T08:55:19.850Z,100912.84
2019-05-26T09:01:26.560Z,100913.82
2019-05-26T09:07:32.548Z,100908.50
2019-05-26T09:13:39.110Z,100900.05
2019-05-26T09:19:44.974Z,100901.98
2019-05-26T09:25:50.873Z,100894.33
2019-05-26T09:31:56.854Z,100894.30
2019-05-26T09:38:02.722Z,100898.73
2019-05-26T09:44:09.937Z,100894.08
2019-05-26T09:50:17.156Z,100885.60
2019-05-26T09:56:23.198Z,100887.80
2019-05-26T10:02:29.046Z,100874.19
2019-05-26T10:08:35.172Z,100863.42
2019-05-26T10:14:41.521Z,100860.81
2019-05-26T10:20:47.609Z,100855.67
2019-05-26T10:26:56.335Z,100848.94
2019-05-26T10:33:02.308Z,100866.77
2019-05-26T10:39:10.107Z,100862.54
2019-05-26T10:45:16.258Z,100856.79
2019-05-26T10:51:22.344Z,100862.64
2019-05-26T10:57:28.145Z,100854.95
2019-05-26T11:03:34.225Z,100848.50
2019-05-26T11:09:40.896Z,100846.27
2019-05-26T11:15:47.329Z,100842.06
2019-05-26T11:21:53.198Z,100835.66
2019-05-26T11:27:59.070Z,100833.52
2019-05-26T11:34:05.196Z,100831.62
2019-05-26T11:40:24.298Z,100826.91
2019-05-26T11:46:30.367Z,100815.75
2019-05-26T11:52:36.347Z,100812.95
2019-05-26T11:58:42.233Z,100812.53
2019-05-26T12:04:48.347Z,100798.12
2019-05-26T12:10:58.148Z,100794.73
2019-05-26T12:17:02.354Z,100785.44
2019-05-26T12:23:08.555Z,100774.24
2019-05-26T12:29:14.850Z,100766.13
2019-05-26T12:35:21.123Z,100762.48
2019-05-26T12:41:27.544Z,100763.03
2019-05-26T12:47:33.508Z,100751.87
2019-05-26T12:53:39.945Z,100751.24
2019-05-26T12:59:45.771Z,100746.23
2019-05-26T13:05:52.057Z,100751.64
2019-05-26T13:11:58.143Z,100746.28
2019-05-26T13:18:05.242Z,100740.22
2019-05-26T13:24:11.301Z,100730.55
2019-05-26T13:30:20.268Z,100727.54
2019-05-26T13:36:26.526Z,100725.48
2019-05-26T13:42:33.231Z,100725.56
2019-05-26T13:48:39.964Z,100718.41
2019-05-26T13:54:46.210Z,100725.13
2019-05-26T14:00:52.514Z,100704.16
2019-05-26T14:07:04.272Z,100699.47
2019-05-26T14:13:10.782Z,100698.14
2019-05-26T14:19:19.442Z,100689.77
2019-05-26T14:25:25.344Z,100698.68
2019-05-26T14:31:31.844Z,100690.61
2019-05-26T14:37:38.045Z,100680.50
2019-05-26T14:43:44.519Z,100672.79
2019-05-26T14:49:50.856Z,100662.31
2019-05-26T14:55:56.813Z,100660.27
2019-05-26T15:02:03.099Z,100660.43
2019-05-26T15:08:09.251Z,100653.75
2019-05-26T15:14:15.253Z,100657.38
2019-05-26T15:20:21.651Z,100653.13
2019-05-26T15:26:27.475Z,100639.86
2019-05-26T15:32:33.341Z,100635.49
2019-05-26T15:38:42.789Z,100621.22
2019-05-26T15:44:46.847Z,100615.55
2019-05-26T15:50:52.692Z,100605.73
2019-05-26T15:56:58.541Z,100606.19
2019-05-26T16:03:04.680Z,100603.45
2019-05-26T16:09:10.623Z,100597.33
2019-05-26T16:15:17.421Z,100602.03
2019-05-26T16:21:27.939Z,100600.63
2019-05-26T16:27:31.997Z,100594.58
2019-05-26T16:33:37.899Z,100595.70
2019-05-26T16:39:44.131Z,100582.31
2019-05-26T16:45:56.062Z,100573.95
2019-05-26T16:51:58.872Z,100566.20
2019-05-26T16:58:06.868Z,100565.64
2019-05-26T17:04:13.767Z,100563.00
2019-05-26T17:10:20.048Z,100559.31
2019-05-26T17:16:26.231Z,100555.55
2019-05-26T17:22:32.281Z,100554.34
2019-05-26T17:28:38.646Z,100552.55
2019-05-26T17:34:45.109Z,100538.37
2019-05-26T17:40:51.571Z,100538.14
2019-05-26T17:46:57.529Z,100536.58
2019-05-26T17:53:04.286Z,100525.43
2019-05-26T17:59:10.427Z,100529.70
2019-05-26T18:05:17.384Z,100535.94
2019-05-26T18:11:24.103Z,100516.91
2019-05-26T18:17:45.958Z,100519.09
2019-05-26T18:23:39.365Z,100513.45
2019-05-26T18:29:45.677Z,100498.56
2019-05-26T18:35:51.953Z,100500.48
2019-05-26T18:41:58.499Z,100496.59
2019-05-26T18:48:04.437Z,100493.36
2019-05-26T18:54:10.289Z,100483.08
2019-05-26T19:00:17.228Z,100485.61
2019-05-26T19:06:23.548Z,100484.84
2019-05-26T19:12:29.508Z,100489.17
2019-05-26T19:18:35.509Z,100483.33
2019-05-26T19:24:41.555Z,100478.38
2019-05-26T19:30:49.160Z,100489.30
2019-05-26T19:36:54.949Z,100480.81
2019-05-26T19:43:01.070Z,100491.61
2019-05-26T19:49:07.235Z,100498.66
2019-05-26T19:55:14.147Z,100503.91
2019-05-26T20:01:20.179Z,100504.46
2019-05-26T20:07:25.980Z,100497.28
2019-05-26T20:13:31.931Z,100497.99
2019-05-26T20:19:38.001Z,100502.11
2019-05-26T20:25:43.922Z,100504.66
2019-05-26T20:31:49.829Z,100499.53
2019-05-26T20:37:55.974Z,100494.98
2019-05-26T20:44:01.923Z,100490.77
2019-05-26T20:50:08.127Z,100503.70
2019-05-26T20:56:14.112Z,100501.58
2019-05-26T21:02:20.041Z,100502.63
2019-05-26T21:08:25.885Z,100502.98
2019-05-26T21:14:31.680Z,100494.11
2019-05-26T21:20:37.885Z,100482.83
2019-05-26T21:26:44.837Z,100485.05
2019-05-26T21:32:50.946Z,100479.91
2019-05-26T21:38:57.123Z,100473.03
2019-05-26T21:45:03.516Z,100468.88
2019-05-26T21:51:09.936Z,100474.67
2019-05-26T21:57:15.761Z,100472.01
2019-05-26T22:03:21.935Z,100476.78
2019-05-26T22:09:27.981Z,100477.16
2019-05-26T22:15:34.002Z,100484.30
2019-05-26T22:21:40.151Z,100477.06
2019-05-26T22:27:46.081Z,100478.06
2019-05-26T22:33:51.985Z,100469.67
2019-05-26T22:39:57.985Z,100467.44
2019-05-26T22:46:03.962Z,100463.48
2019-05-26T22:52:10.086Z,100440.91
2019-05-26T22:58:16.100Z,100452.20
2019-05-26T23:04:22.053Z,100445.42
2019-05-26T23:10:28.445Z,100447.25
2019-05-26T23:16:34.415Z,100433.22
2019-05-26T23:22:40.200Z,100435.69
2019-05-26T23:28:46.477Z,100428.50
2019-05-26T23:34:54.158Z,100422.75
2019-05-26T23:41:00.054Z,100421.98
2019-05-26T23:47:06.963Z,100416.70
2019-05-26T23:53:12.748Z,100411.25
2019-05-26T23:59:18.633Z,100414.44
